createdAt,value
2019-01-24T00:01:27.484Z,174.43
2019-01-24T00:03:57.450Z,189.17
2019-01-24T00:06:29.332Z,169.13
2019-01-24T00:08:59.285Z,155.77
2019-01-24T00:11:29.200Z,157.67
2019-01-24T00:13:59.110Z,163.40
2019-01-24T00:16:29.075Z,149.03
2019-01-24T00:18:58.971Z,167.37
2019-01-24T00:21:28.975Z,161.43
2019-01-24T00:23:58.849Z,155.63
2019-01-24T00:26:28.737Z,148.30
2019-01-24T00:28:58.623Z,144.70
2019-01-24T00:31:28.492Z,147.33
2019-01-24T00:33:58.563Z,152.53
2019-01-24T00:36:28.500Z,114.30
2019-01-24T00:38:58.420Z,147.97
2019-01-24T00:41:28.352Z,137.93
2019-01-24T00:43:58.260Z,128.50
2019-01-24T00:46:28.171Z,138.57
2019-01-24T00:48:58.166Z,139.83
2019-01-24T00:51:28.048Z,145.40
2019-01-24T00:53:57.924Z,109.80
2019-01-24T00:56:27.907Z,119.23
2019-01-24T00:58:57.821Z,125.83
2019-01-24T01:01:27.765Z,118.67
2019-01-24T01:03:57.675Z,133.63
2019-01-24T01:06:27.739Z,128.93
2019-01-24T01:08:57.815Z,154.10
2019-01-24T01:11:27.705Z,130.73
2019-01-24T01:13:57.574Z,139.90
2019-01-24T01:16:27.483Z,138.60
2019-01-24T01:18:57.374Z,136.70
2019-01-24T01:21:27.310Z,114.87
2019-01-24T01:23:57.309Z,92.90
2019-01-24T01:26:27.164Z,133.97
2019-01-24T01:28:57.150Z,143.60
2019-01-24T01:31:27.180Z,139.57
2019-01-24T01:33:57.060Z,132.50
2019-01-24T01:36:26.928Z,144.97
2019-01-24T01:38:56.929Z,149.13
2019-01-24T01:41:26.856Z,161.27
2019-01-24T01:43:56.792Z,138.73
2019-01-24T01:46:26.871Z,153.30
2019-01-24T01:48:57.011Z,145.13
2019-01-24T01:51:26.869Z,148.60
2019-01-24T01:53:56.937Z,152.60
2019-01-24T01:56:26.831Z,133.47
2019-01-24T01:58:56.750Z,151.07
2019-01-24T02:01:26.609Z,114.17
2019-01-24T02:03:56.553Z,106.60
2019-01-24T02:06:26.524Z,108.43
2019-01-24T02:08:56.431Z,130.80
2019-01-24T02:11:26.316Z,111.67
2019-01-24T02:13:56.232Z,121.23
2019-01-24T02:16:26.179Z,133.67
2019-01-24T02:18:56.152Z,134.30
2019-01-24T02:21:26.258Z,118.00
2019-01-24T02:23:56.343Z,111.63
2019-01-24T02:26:26.251Z,130.63
2019-01-24T02:28:56.195Z,135.20
2019-01-24T02:31:26.258Z,115.57
2019-01-24T02:33:57.881Z,126.57
2019-01-24T02:36:27.792Z,147.07
2019-01-24T02:38:57.671Z,117.43
2019-01-24T02:41:27.621Z,105.23
2019-01-24T02:43:57.508Z,105.63
2019-01-24T02:46:27.479Z,107.20
2019-01-24T02:48:57.428Z,110.47
2019-01-24T02:51:27.308Z,105.90
2019-01-24T02:53:57.184Z,124.60
2019-01-24T02:56:27.105Z,118.20
2019-01-24T02:58:57.105Z,141.93
2019-01-24T03:01:27.068Z,120.70
2019-01-24T03:03:57.036Z,107.00
2019-01-24T03:06:27.059Z,113.63
2019-01-24T03:08:56.945Z,103.90
2019-01-24T03:11:26.890Z,126.43
2019-01-24T03:13:56.870Z,103.57
2019-01-24T03:16:26.808Z,96.27
2019-01-24T03:18:56.688Z,126.37
2019-01-24T03:21:26.573Z,119.77
2019-01-24T03:23:56.487Z,109.53
2019-01-24T03:26:26.387Z,122.53
2019-01-24T03:28:56.303Z,129.00
2019-01-24T03:31:26.260Z,118.83
2019-01-24T03:33:56.295Z,139.63
2019-01-24T03:36:26.195Z,106.40
2019-01-24T03:38:56.060Z,148.53
2019-01-24T03:41:25.999Z,123.40
2019-01-24T03:43:55.950Z,126.10
2019-01-24T03:46:25.850Z,129.03
2019-01-24T03:48:55.749Z,144.27
2019-01-24T03:51:25.636Z,119.43
2019-01-24T03:53:55.603Z,156.27
2019-01-24T03:56:25.575Z,118.30
2019-01-24T03:58:55.679Z,150.57
2019-01-24T04:01:25.548Z,117.73
2019-01-24T04:03:55.457Z,103.37
2019-01-24T04:06:25.532Z,116.17
2019-01-24T04:08:55.528Z,131.73
2019-01-24T04:11:25.509Z,123.07
2019-01-24T04:13:55.427Z,115.23
2019-01-24T04:16:26.089Z,121.37
2019-01-24T04:18:55.975Z,108.00
2019-01-24T04:21:25.979Z,114.53
2019-01-24T04:23:55.979Z,127.07
2019-01-24T04:26:25.924Z,123.87
2019-01-24T04:28:55.887Z,131.07
2019-01-24T04:31:25.797Z,149.90
2019-01-24T04:33:55.692Z,130.73
2019-01-24T04:36:25.645Z,125.60
2019-01-24T04:38:55.582Z,144.63
2019-01-24T04:41:25.601Z,136.83
2019-01-24T04:43:55.536Z,118.60
2019-01-24T04:46:25.521Z,132.03
2019-01-24T04:48:55.581Z,113.90
2019-01-24T04:51:25.453Z,115.30
2019-01-24T04:53:55.345Z,104.53
2019-01-24T04:56:25.411Z,126.23
2019-01-24T04:58:55.370Z,141.77
2019-01-24T05:01:25.311Z,127.57
2019-01-24T05:03:55.173Z,127.47
2019-01-24T05:06:25.256Z,135.10
2019-01-24T05:08:55.142Z,121.90
2019-01-24T05:11:25.137Z,130.60
2019-01-24T05:13:55.077Z,139.33
2019-01-24T05:16:24.970Z,129.40
2019-01-24T05:18:55.014Z,112.80
2019-01-24T05:21:24.892Z,142.37
2019-01-24T05:23:54.926Z,124.57
2019-01-24T05:26:24.834Z,119.50
2019-01-24T05:28:54.757Z,134.00
2019-01-24T05:31:24.720Z,128.83
2019-01-24T05:33:54.589Z,130.77
2019-01-24T05:36:24.577Z,72.00
2019-01-24T05:38:54.516Z,118.90
2019-01-24T05:41:24.513Z,128.03
2019-01-24T05:43:54.522Z,126.43
2019-01-24T05:46:24.422Z,132.83
2019-01-24T05:48:54.383Z,123.23
2019-01-24T05:51:24.288Z,114.33
2019-01-24T05:53:54.212Z,124.87
2019-01-24T05:56:24.149Z,108.23
2019-01-24T05:58:54.038Z,116.43
2019-01-24T06:01:24.400Z,114.03
2019-01-24T06:03:54.404Z,136.23
2019-01-24T06:06:24.331Z,130.17
2019-01-24T06:08:54.204Z,120.17
2019-01-24T06:11:24.636Z,108.77
2019-01-24T06:13:54.700Z,120.47
2019-01-24T06:16:24.567Z,116.83
2019-01-24T06:18:54.543Z,106.47
2019-01-24T06:21:24.561Z,108.43
2019-01-24T06:23:54.551Z,111.47
2019-01-24T06:26:24.572Z,107.60
2019-01-24T06:28:54.651Z,108.27
2019-01-24T06:31:24.707Z,100.83
2019-01-24T06:33:54.825Z,105.37
2019-01-24T06:36:24.813Z,142.20
2019-01-24T06:38:54.701Z,82.90
2019-01-24T06:41:24.663Z,88.23
2019-01-24T06:43:54.577Z,120.93
2019-01-24T06:46:24.646Z,84.30
2019-01-24T06:48:54.620Z,112.33
2019-01-24T06:51:24.505Z,97.23
2019-01-24T06:53:54.484Z,88.93
2019-01-24T06:56:24.513Z,97.27
2019-01-24T06:58:54.400Z,99.27
2019-01-24T07:01:24.284Z,100.37
2019-01-24T07:03:54.180Z,109.30
2019-01-24T07:06:24.110Z,102.97
2019-01-24T07:08:54.008Z,103.00
2019-01-24T07:11:24.032Z,98.53
2019-01-24T07:13:53.875Z,119.67
2019-01-24T07:16:23.770Z,98.53
2019-01-24T07:18:53.825Z,103.77
2019-01-24T07:21:23.726Z,112.27
2019-01-24T07:23:53.869Z,101.47
2019-01-24T07:26:23.824Z,114.90
2019-01-24T07:28:53.793Z,89.03
2019-01-24T07:31:23.717Z,104.17
2019-01-24T07:33:53.645Z,122.27
2019-01-24T07:36:23.536Z,113.63
2019-01-24T07:38:53.408Z,95.20
2019-01-24T07:41:23.462Z,108.87
2019-01-24T07:43:53.401Z,121.93
2019-01-24T07:46:23.243Z,98.37
2019-01-24T07:48:53.148Z,94.90
2019-01-24T07:51:23.166Z,100.23
2019-01-24T07:53:53.205Z,100.23
2019-01-24T07:56:23.064Z,107.63
2019-01-24T07:58:52.939Z,91.17
2019-01-24T08:01:22.817Z,98.20
2019-01-24T08:03:52.772Z,90.73
2019-01-24T08:06:22.742Z,99.83
2019-01-24T08:09:11.967Z,102.23
2019-01-24T08:11:42.077Z,100.73
2019-01-24T08:14:12.060Z,107.37
2019-01-24T08:16:42.143Z,91.37
2019-01-24T08:19:12.330Z,102.07
2019-01-24T08:21:42.245Z,88.33
2019-01-24T08:24:12.295Z,101.53
2019-01-24T08:26:42.294Z,92.70
2019-01-24T08:29:12.249Z,98.90
2019-01-24T08:31:42.149Z,113.10
2019-01-24T08:34:12.019Z,109.67
2019-01-24T08:36:41.900Z,111.17
2019-01-24T08:39:11.788Z,103.77
2019-01-24T08:41:41.675Z,105.90
2019-01-24T08:44:11.723Z,103.00
2019-01-24T08:46:41.802Z,105.23
2019-01-24T08:49:11.840Z,100.90
2019-01-24T08:51:41.936Z,100.90
2019-01-24T08:54:11.993Z,108.83
2019-01-24T08:56:42.108Z,105.57
2019-01-24T08:59:12.636Z,98.87
2019-01-24T09:01:42.677Z,101.63
2019-01-24T09:04:12.751Z,104.77
2019-01-24T09:06:42.996Z,104.63
2019-01-24T09:09:13.187Z,110.43
2019-01-24T09:11:43.132Z,103.47
2019-01-24T09:14:13.501Z,91.67
2019-01-24T09:16:43.753Z,91.20
2019-01-24T09:19:13.729Z,98.57
2019-01-24T09:21:46.114Z,103.50
2019-01-24T09:24:16.173Z,91.43
2019-01-24T09:26:46.067Z,88.70
2019-01-24T09:29:16.068Z,93.70
2019-01-24T09:31:52.593Z,99.97
2019-01-24T09:34:22.616Z,89.83
2019-01-24T09:36:52.625Z,103.60
2019-01-24T09:39:23.540Z,106.67
2019-01-24T09:41:53.561Z,104.73
2019-01-24T09:44:23.532Z,93.43
2019-01-24T09:46:53.512Z,95.13
2019-01-24T09:49:23.506Z,104.07
2019-01-24T09:51:53.412Z,99.10
2019-01-24T09:54:23.361Z,93.03
2019-01-24T09:56:53.305Z,94.97
2019-01-24T09:59:23.343Z,100.23
2019-01-24T10:01:53.290Z,85.23
2019-01-24T10:04:23.157Z,96.93
2019-01-24T10:06:53.140Z,93.87
2019-01-24T10:09:23.139Z,100.77
2019-01-24T10:11:53.004Z,89.10
2019-01-24T10:14:22.907Z,95.47
2019-01-24T10:16:52.836Z,103.50
2019-01-24T10:19:22.950Z,99.50
2019-01-24T10:21:53.412Z,92.37
2019-01-24T10:24:24.753Z,90.60
2019-01-24T10:26:54.703Z,96.20
2019-01-24T10:29:24.659Z,98.17
2019-01-24T10:31:54.507Z,84.87
2019-01-24T10:34:24.459Z,105.80
2019-01-24T10:36:54.521Z,105.33
2019-01-24T10:39:24.474Z,93.37
2019-01-24T10:41:55.047Z,92.13
2019-01-24T10:44:25.259Z,87.17
2019-01-24T10:46:55.225Z,85.13
2019-01-24T10:49:32.180Z,98.53
2019-01-24T10:52:03.836Z,92.60
2019-01-24T10:54:33.733Z,97.33
2019-01-24T10:57:03.839Z,104.23
2019-01-24T10:59:33.803Z,93.77
2019-01-24T11:02:03.925Z,106.57
2019-01-24T11:04:33.820Z,98.90
2019-01-24T11:07:03.752Z,83.27
2019-01-24T11:09:33.675Z,93.17
2019-01-24T11:12:03.583Z,81.83
2019-01-24T11:14:33.558Z,85.60
2019-01-24T11:17:03.518Z,88.63
2019-01-24T11:19:33.532Z,100.70
2019-01-24T11:22:03.533Z,96.63
2019-01-24T11:24:33.593Z,102.50
2019-01-24T11:27:03.599Z,97.10
2019-01-24T11:29:33.494Z,118.20
2019-01-24T11:32:03.447Z,96.37
2019-01-24T11:34:33.515Z,85.50
2019-01-24T11:37:03.524Z,96.87
2019-01-24T11:39:34.227Z,105.03
2019-01-24T11:42:04.395Z,88.97
2019-01-24T11:44:34.320Z,100.60
2019-01-24T11:47:04.213Z,96.77
2019-01-24T11:49:34.228Z,111.20
2019-01-24T11:52:04.116Z,98.13
2019-01-24T11:54:34.060Z,97.93
2019-01-24T11:57:04.114Z,103.13
2019-01-24T11:59:34.074Z,113.67
2019-01-24T12:02:04.069Z,112.30
2019-01-24T12:04:34.011Z,101.73
2019-01-24T12:07:04.356Z,103.17
2019-01-24T12:09:34.484Z,103.83
2019-01-24T12:12:04.633Z,116.63
2019-01-24T12:14:34.640Z,100.77
2019-01-24T12:17:04.628Z,97.17
2019-01-24T12:19:34.577Z,101.47
2019-01-24T12:22:04.783Z,92.63
2019-01-24T12:24:34.762Z,101.13
2019-01-24T12:27:04.921Z,100.43
2019-01-24T12:29:34.857Z,96.40
2019-01-24T12:32:04.862Z,98.93
2019-01-24T12:34:35.036Z,87.27
2019-01-24T12:37:11.103Z,108.07
2019-01-24T12:39:36.898Z,106.40
2019-01-24T12:42:07.105Z,99.27
2019-01-24T12:44:36.979Z,103.43
2019-01-24T12:47:07.258Z,97.93
2019-01-24T12:49:37.236Z,116.93
2019-01-24T12:52:07.221Z,105.37
2019-01-24T12:54:37.111Z,96.30
2019-01-24T12:57:07.089Z,103.93
2019-01-24T12:59:36.977Z,108.07
2019-01-24T13:02:06.912Z,106.73
2019-01-24T13:04:36.866Z,97.70
2019-01-24T13:07:06.744Z,95.97
2019-01-24T13:09:36.594Z,98.77
2019-01-24T13:12:06.628Z,102.47
2019-01-24T13:14:36.751Z,105.43
2019-01-24T13:17:06.810Z,87.53
2019-01-24T13:19:36.704Z,90.80
2019-01-24T13:22:06.663Z,96.70
2019-01-24T13:24:36.769Z,105.50
2019-01-24T13:27:06.736Z,99.07
2019-01-24T13:29:36.635Z,89.30
2019-01-24T13:32:06.700Z,115.40
2019-01-24T13:34:36.648Z,99.43
2019-01-24T13:37:06.709Z,118.17
2019-01-24T13:39:36.679Z,97.73
2019-01-24T13:42:06.743Z,96.87
2019-01-24T13:44:36.596Z,97.53
2019-01-24T13:47:09.172Z,109.37
2019-01-24T13:49:39.055Z,99.60
2019-01-24T13:52:09.246Z,104.80
2019-01-24T13:54:39.376Z,116.10
2019-01-24T13:57:09.370Z,111.10
2019-01-24T13:59:39.293Z,99.77
2019-01-24T14:02:09.269Z,111.43
2019-01-24T14:04:46.137Z,109.47
2019-01-24T14:07:16.068Z,102.60
2019-01-24T14:09:46.097Z,97.40
2019-01-24T14:12:16.112Z,108.10
2019-01-24T14:14:46.523Z,107.03
2019-01-24T14:17:17.465Z,100.93
2019-01-24T14:19:47.472Z,106.30
2019-01-24T14:22:17.409Z,92.93
2019-01-24T14:24:47.361Z,107.27
2019-01-24T14:27:17.277Z,97.57
2019-01-24T14:29:47.189Z,96.27
2019-01-24T14:32:17.056Z,96.03
2019-01-24T14:34:46.967Z,104.27
2019-01-24T14:37:16.890Z,111.37
2019-01-24T14:39:46.860Z,105.60
2019-01-24T14:42:16.749Z,103.93
2019-01-24T14:44:46.725Z,114.73
2019-01-24T14:47:16.607Z,105.40
2019-01-24T14:49:46.558Z,94.13
2019-01-24T14:52:16.525Z,98.10
2019-01-24T14:54:46.454Z,98.10
2019-01-24T14:57:18.178Z,100.90
2019-01-24T14:59:48.351Z,107.97
2019-01-24T15:02:18.457Z,111.43
2019-01-24T15:04:48.483Z,96.83
2019-01-24T15:07:18.393Z,95.50
2019-01-24T15:09:48.595Z,96.53
2019-01-24T15:12:18.559Z,100.37
2019-01-24T15:14:48.452Z,112.67
2019-01-24T15:17:18.413Z,119.63
2019-01-24T15:19:48.308Z,99.67
2019-01-24T15:22:18.155Z,100.10
2019-01-24T15:24:48.031Z,97.23
2019-01-24T15:27:18.020Z,112.40
2019-01-24T15:29:48.053Z,94.63
2019-01-24T15:32:17.990Z,107.47
2019-01-24T15:34:47.872Z,93.53
2019-01-24T15:37:18.718Z,108.00
2019-01-24T15:39:48.659Z,101.83
2019-01-24T15:42:18.536Z,95.37
2019-01-24T15:44:48.601Z,95.90
2019-01-24T15:47:18.460Z,105.80
2019-01-24T15:49:48.390Z,105.20
2019-01-24T15:52:18.344Z,99.13
2019-01-24T15:54:48.329Z,93.13
2019-01-24T15:57:18.284Z,113.53
2019-01-24T15:59:48.276Z,111.13
2019-01-24T16:02:18.161Z,111.63
2019-01-24T16:04:48.060Z,102.60
2019-01-24T16:07:18.097Z,105.70
2019-01-24T16:09:48.020Z,105.93
2019-01-24T16:12:18.057Z,95.00
2019-01-24T16:14:48.005Z,114.80
2019-01-24T16:17:17.972Z,109.83
2019-01-24T16:19:47.980Z,107.53
2019-01-24T16:22:17.914Z,106.70
2019-01-24T16:24:47.973Z,102.77
2019-01-24T16:27:17.981Z,104.70
2019-01-24T16:29:47.957Z,102.90
2019-01-24T16:32:17.925Z,93.97
2019-01-24T16:34:47.827Z,120.17
2019-01-24T16:37:17.792Z,111.40
2019-01-24T16:39:48.052Z,117.60
2019-01-24T16:42:17.968Z,114.97
2019-01-24T16:44:47.937Z,108.17
2019-01-24T16:47:17.891Z,110.00
2019-01-24T16:49:47.836Z,111.77
2019-01-24T16:52:17.868Z,105.83
2019-01-24T16:54:47.832Z,116.37
2019-01-24T16:57:17.811Z,118.47
2019-01-24T16:59:47.844Z,115.67
2019-01-24T17:02:18.914Z,103.77
2019-01-24T17:04:49.005Z,101.20
2019-01-24T17:07:19.007Z,107.10
2019-01-24T17:09:49.043Z,102.70
2019-01-24T17:12:19.505Z,109.73
2019-01-24T17:14:49.472Z,118.67
2019-01-24T17:17:20.241Z,121.87
2019-01-24T17:19:50.204Z,122.73
2019-01-24T17:22:20.155Z,100.87
2019-01-24T17:24:50.215Z,114.50
2019-01-24T17:27:20.195Z,106.43
2019-01-24T17:29:50.136Z,95.60
2019-01-24T17:32:20.075Z,104.33
2019-01-24T17:34:49.966Z,96.87
2019-01-24T17:37:19.920Z,110.27
2019-01-24T17:39:49.875Z,91.87
2019-01-24T17:42:19.702Z,106.97
2019-01-24T17:44:49.664Z,104.20
2019-01-24T17:47:19.651Z,98.70
2019-01-24T17:49:49.574Z,108.20
2019-01-24T17:52:22.850Z,104.50
2019-01-24T17:54:52.716Z,113.83
2019-01-24T17:57:22.602Z,102.67
2019-01-24T17:59:52.468Z,107.93
2019-01-24T18:02:22.543Z,98.43
2019-01-24T18:04:52.468Z,105.60
2019-01-24T18:07:22.557Z,96.67
2019-01-24T18:09:52.519Z,101.77
2019-01-24T18:12:23.594Z,102.43
2019-01-24T18:14:53.517Z,104.53
2019-01-24T18:17:23.492Z,93.00
2019-01-24T18:19:53.475Z,102.67
2019-01-24T18:22:23.479Z,103.80
2019-01-24T18:24:53.402Z,102.93
2019-01-24T18:27:23.295Z,92.47
2019-01-24T18:29:53.173Z,111.47
2019-01-24T18:32:23.232Z,109.63
2019-01-24T18:34:53.093Z,100.43
2019-01-24T18:37:23.035Z,97.37
2019-01-24T18:39:52.946Z,98.43
2019-01-24T18:42:22.815Z,91.70
2019-01-24T18:44:52.730Z,95.30
2019-01-24T18:47:22.727Z,100.27
2019-01-24T18:49:52.820Z,91.60
2019-01-24T18:52:22.855Z,91.33
2019-01-24T18:54:52.772Z,109.63
2019-01-24T18:57:22.712Z,93.13
2019-01-24T18:59:52.652Z,105.17
2019-01-24T19:02:22.584Z,96.63
2019-01-24T19:04:52.536Z,122.80
2019-01-24T19:07:22.500Z,109.00
2019-01-24T19:09:52.466Z,90.23
2019-01-24T19:12:22.339Z,95.43
2019-01-24T19:14:52.219Z,90.13
2019-01-24T19:17:22.195Z,96.30
2019-01-24T19:19:52.131Z,96.73
2019-01-24T19:22:22.104Z,98.03
2019-01-24T19:24:52.037Z,98.60
2019-01-24T19:27:21.992Z,81.50
2019-01-24T19:29:51.844Z,96.40
2019-01-24T19:32:21.803Z,97.23
2019-01-24T19:34:51.676Z,90.40
2019-01-24T19:37:21.735Z,84.10
2019-01-24T19:39:53.560Z,94.43
2019-01-24T19:42:23.200Z,96.50
2019-01-24T19:44:53.045Z,94.20
2019-01-24T19:47:22.950Z,94.93
2019-01-24T19:49:52.958Z,97.37
2019-01-24T19:52:22.866Z,81.70
2019-01-24T19:54:52.847Z,95.83
2019-01-24T19:57:22.817Z,91.20
2019-01-24T19:59:52.767Z,88.93
2019-01-24T20:02:22.663Z,84.80
2019-01-24T20:04:52.540Z,89.27
2019-01-24T20:07:22.405Z,90.63
2019-01-24T20:09:52.287Z,91.83
2019-01-24T20:12:22.385Z,92.87
2019-01-24T20:14:52.224Z,81.33
2019-01-24T20:17:22.864Z,92.40
2019-01-24T20:19:52.819Z,93.03
2019-01-24T20:22:23.028Z,87.97
2019-01-24T20:24:52.948Z,81.60
2019-01-24T20:27:22.830Z,87.70
2019-01-24T20:29:52.911Z,88.07
2019-01-24T20:32:22.919Z,76.73
2019-01-24T20:34:52.892Z,93.50
2019-01-24T20:37:23.448Z,87.97
2019-01-24T20:39:53.369Z,80.03
2019-01-24T20:42:23.236Z,75.20
2019-01-24T20:44:53.218Z,83.30
2019-01-24T20:47:24.511Z,86.97
2019-01-24T20:49:54.716Z,94.60
2019-01-24T20:52:24.681Z,88.43
2019-01-24T20:54:54.605Z,89.93
2019-01-24T20:57:24.544Z,88.93
2019-01-24T20:59:54.411Z,80.00
2019-01-24T21:02:24.362Z,100.57
2019-01-24T21:04:54.664Z,90.93
2019-01-24T21:07:24.609Z,83.63
2019-01-24T21:09:54.733Z,90.17
2019-01-24T21:12:24.641Z,96.63
2019-01-24T21:14:54.511Z,96.13
2019-01-24T21:17:24.409Z,91.73
2019-01-24T21:19:54.291Z,86.13
2019-01-24T21:22:24.191Z,87.17
2019-01-24T21:24:54.661Z,91.80
2019-01-24T21:27:24.597Z,96.47
2019-01-24T21:29:54.553Z,103.53
2019-01-24T21:32:24.511Z,102.70
2019-01-24T21:34:54.544Z,103.03
2019-01-24T21:37:24.475Z,95.60
2019-01-24T21:39:56.408Z,93.70
2019-01-24T21:42:28.315Z,90.10
2019-01-24T21:44:58.189Z,89.47
2019-01-24T21:47:28.128Z,86.77
2019-01-24T21:49:58.086Z,96.97
2019-01-24T21:52:28.023Z,101.83
2019-01-24T21:54:58.121Z,112.77
2019-01-24T21:57:28.069Z,104.67
2019-01-24T21:59:58.122Z,104.63
2019-01-24T22:02:28.842Z,92.23
2019-01-24T22:05:00.584Z,118.10
2019-01-24T22:07:30.623Z,110.97
2019-01-24T22:10:00.510Z,119.20
2019-01-24T22:12:30.484Z,111.67
2019-01-24T22:15:00.492Z,112.63
2019-01-24T22:17:30.536Z,119.80
2019-01-24T22:20:00.518Z,113.77
2019-01-24T22:22:30.461Z,123.10
2019-01-24T22:25:00.423Z,111.87
2019-01-24T22:27:30.284Z,111.97
2019-01-24T22:30:00.273Z,112.40
2019-01-24T22:32:30.183Z,115.90
2019-01-24T22:35:00.208Z,116.60
2019-01-24T22:37:30.234Z,92.07
2019-01-24T22:40:00.245Z,92.20
2019-01-24T22:42:30.192Z,90.53
2019-01-24T22:45:00.168Z,85.37
2019-01-24T22:47:30.235Z,98.80
2019-01-24T22:50:00.304Z,89.70
2019-01-24T22:52:30.238Z,92.53
2019-01-24T22:55:00.278Z,88.83
2019-01-24T22:57:30.127Z,102.70
2019-01-24T23:00:00.203Z,99.30
2019-01-24T23:02:31.812Z,103.30
2019-01-24T23:05:01.736Z,93.87
2019-01-24T23:07:32.174Z,107.67
2019-01-24T23:10:04.407Z,93.83
2019-01-24T23:12:34.923Z,105.50
2019-01-24T23:15:05.688Z,95.33
2019-01-24T23:17:35.554Z,97.53
2019-01-24T23:20:07.418Z,101.03
2019-01-24T23:22:37.271Z,95.53
2019-01-24T23:25:07.255Z,113.90
2019-01-24T23:27:37.255Z,105.93
2019-01-24T23:30:07.487Z,106.43
2019-01-24T23:32:37.445Z,87.43
2019-01-24T23:35:07.356Z,89.17
2019-01-24T23:37:37.276Z,95.10
2019-01-24T23:40:07.329Z,98.70
2019-01-24T23:42:37.311Z,109.47
2019-01-24T23:45:07.712Z,112.70
2019-01-24T23:47:37.680Z,95.20
2019-01-24T23:50:07.707Z,105.23
2019-01-24T23:52:37.551Z,90.13
2019-01-24T23:55:07.468Z,102.00
2019-01-24T23:57:37.522Z,99.17
